createdAt,value
2024-02-28T00:01:00.441Z,2.80
2024-02-28T00:03:28.155Z,3.20
2024-02-28T00:05:55.511Z,2.00
2024-02-28T00:08:23.674Z,1.80
2024-02-28T00:10:51.301Z,2.00
2024-02-28T00:13:18.968Z,2.00
2024-02-28T00:15:46.622Z,4.00
2024-02-28T00:18:16.367Z,2.00
2024-02-28T00:20:46.534Z,2.00
2024-02-28T00:23:14.034Z,2.40
2024-02-28T00:25:41.508Z,1.80
2024-02-28T00:28:09.273Z,3.60
2024-02-28T00:30:37.094Z,2.80
2024-02-28T00:33:04.816Z,2.80
2024-02-28T00:35:37.680Z,2.00
2024-02-28T00:38:05.733Z,4.00
2024-02-28T00:40:33.280Z,2.00
2024-02-28T00:43:00.891Z,2.00
2024-02-28T00:45:28.421Z,2.00
2024-02-28T00:47:56.859Z,2.00
2024-02-28T00:50:24.529Z,2.00
2024-02-28T00:52:51.914Z,2.00
2024-02-28T00:55:20.176Z,2.00
2024-02-28T00:57:48.021Z,2.80
2024-02-28T01:00:15.856Z,4.00
2024-02-28T01:02:43.468Z,1.20
2024-02-28T01:05:11.061Z,2.00
2024-02-28T01:07:38.414Z,2.00
2024-02-28T01:10:06.522Z,3.60
2024-02-28T01:12:34.131Z,2.40
2024-02-28T01:15:01.854Z,1.00
2024-02-28T01:17:29.393Z,2.00
2024-02-28T01:19:56.971Z,1.00
2024-02-28T01:22:24.378Z,2.00
2024-02-28T01:24:51.839Z,1.00
2024-02-28T01:27:19.544Z,4.00
2024-02-28T01:29:47.221Z,2.00
2024-02-28T01:32:14.591Z,2.00
2024-02-28T01:34:42.188Z,2.40
2024-02-28T01:37:09.697Z,4.00
2024-02-28T01:39:37.350Z,3.60
2024-02-28T01:42:05.100Z,4.80
2024-02-28T01:44:35.028Z,2.80
2024-02-28T01:47:04.659Z,4.00
2024-02-28T01:49:32.176Z,5.00
2024-02-28T01:51:59.792Z,4.00
2024-02-28T01:54:29.106Z,3.20
2024-02-28T01:56:56.860Z,2.00
2024-02-28T01:59:27.662Z,2.40
2024-02-28T02:01:56.750Z,2.00
2024-02-28T02:04:24.267Z,3.60
2024-02-28T02:06:55.560Z,2.00
2024-02-28T02:09:23.276Z,1.80
2024-02-28T02:11:50.872Z,2.00
2024-02-28T02:14:18.602Z,2.40
2024-02-28T02:16:45.963Z,4.40
2024-02-28T02:19:14.790Z,1.40
2024-02-28T02:21:50.850Z,2.00
2024-02-28T02:24:18.507Z,0.00
2024-02-28T02:26:47.745Z,2.00
2024-02-28T02:29:15.565Z,2.00
2024-02-28T02:31:43.564Z,2.00
2024-02-28T02:34:11.024Z,2.40
2024-02-28T02:36:38.574Z,1.00
2024-02-28T02:39:06.000Z,2.00
2024-02-28T02:41:33.564Z,2.00
2024-02-28T02:44:00.988Z,1.00
2024-02-28T02:46:28.567Z,2.00
2024-02-28T02:48:56.057Z,0.60
2024-02-28T02:51:23.495Z,1.60
2024-02-28T02:53:50.957Z,2.00
2024-02-28T02:56:18.593Z,1.80
2024-02-28T02:58:46.145Z,4.00
2024-02-28T03:01:13.748Z,2.00
2024-02-28T03:03:41.358Z,2.00
2024-02-28T03:06:08.982Z,2.40
2024-02-28T03:08:36.402Z,2.00
2024-02-28T03:11:05.890Z,1.80
2024-02-28T03:13:33.324Z,3.20
2024-02-28T03:16:01.036Z,1.00
2024-02-28T03:18:28.706Z,1.00
2024-02-28T03:20:56.328Z,1.00
2024-02-28T03:23:23.795Z,1.00
2024-02-28T03:25:51.186Z,2.00
2024-02-28T03:28:18.641Z,2.00
2024-02-28T03:30:45.937Z,1.40
2024-02-28T03:33:13.517Z,2.00
2024-02-28T03:35:40.951Z,2.00
2024-02-28T03:38:08.211Z,1.00
2024-02-28T03:40:35.674Z,1.00
2024-02-28T03:43:02.933Z,0.00
2024-02-28T03:45:33.291Z,1.60
2024-02-28T03:48:00.678Z,1.60
2024-02-28T03:50:28.013Z,1.00
2024-02-28T03:52:55.440Z,2.00
2024-02-28T03:55:22.699Z,2.00
2024-02-28T03:57:53.205Z,1.80
2024-02-28T04:00:20.764Z,1.60
2024-02-28T04:02:47.996Z,2.00
2024-02-28T04:05:15.409Z,2.80
2024-02-28T04:07:42.590Z,2.00
2024-02-28T04:10:12.537Z,1.00
2024-02-28T04:12:39.930Z,1.20
2024-02-28T04:15:07.708Z,1.80
2024-02-28T04:17:35.079Z,2.00
2024-02-28T04:20:05.798Z,1.20
2024-02-28T04:22:33.185Z,1.60
2024-02-28T04:25:00.801Z,2.40
2024-02-28T04:27:28.342Z,0.00
2024-02-28T04:29:55.883Z,1.60
2024-02-28T04:32:23.443Z,1.00
2024-02-28T04:34:51.444Z,1.00
2024-02-28T04:37:19.051Z,2.00
2024-02-28T04:39:48.460Z,1.80
2024-02-28T04:42:17.756Z,1.00
2024-02-28T04:44:45.257Z,1.20
2024-02-28T04:47:12.780Z,4.00
2024-02-28T04:49:40.958Z,2.00
2024-02-28T04:52:08.353Z,1.20
2024-02-28T04:54:35.934Z,2.00
2024-02-28T04:57:04.591Z,0.80
2024-02-28T04:59:33.533Z,2.00
2024-02-28T05:02:01.154Z,3.20
2024-02-28T05:04:28.775Z,1.60
2024-02-28T05:06:56.324Z,3.20
2024-02-28T05:09:23.837Z,1.00
2024-02-28T05:11:51.557Z,3.60
2024-02-28T05:14:18.826Z,2.40
2024-02-28T05:16:48.199Z,1.00
2024-02-28T05:19:19.088Z,2.40
2024-02-28T05:21:47.214Z,4.00
2024-02-28T05:24:14.938Z,3.60
2024-02-28T05:26:42.709Z,2.00
2024-02-28T05:29:10.135Z,2.00
2024-02-28T05:31:39.585Z,0.40
2024-02-28T05:34:07.108Z,2.00
2024-02-28T05:36:34.662Z,4.00
2024-02-28T05:39:07.067Z,4.00
2024-02-28T05:41:34.834Z,3.20
2024-02-28T05:44:02.326Z,4.40
2024-02-28T05:46:30.242Z,2.00
2024-02-28T05:48:57.715Z,0.80
2024-02-28T05:51:25.592Z,4.00
2024-02-28T05:53:53.041Z,2.00
2024-02-28T05:56:21.388Z,2.80
2024-02-28T05:58:49.858Z,2.80
2024-02-28T06:01:18.982Z,3.60
2024-02-28T06:03:50.051Z,4.00
2024-02-28T06:06:17.572Z,2.80
2024-02-28T06:08:45.240Z,1.60
2024-02-28T06:11:12.523Z,4.40
2024-02-28T06:13:42.506Z,6.40
2024-02-28T06:16:16.765Z,6.40
2024-02-28T06:18:44.173Z,4.00
2024-02-28T06:21:11.596Z,0.60
2024-02-28T06:23:38.849Z,3.60
2024-02-28T06:26:06.156Z,4.20
2024-02-28T06:28:36.201Z,5.00
2024-02-28T06:31:03.565Z,4.00
2024-02-28T06:33:30.824Z,0.00
2024-02-28T06:35:58.493Z,2.00
2024-02-28T06:38:25.856Z,1.60
2024-02-28T06:40:53.033Z,4.00
2024-02-28T06:43:20.683Z,2.00
2024-02-28T06:45:48.280Z,4.00
2024-02-28T06:48:15.804Z,2.40
2024-02-28T06:50:43.034Z,1.80
2024-02-28T06:53:10.313Z,4.00
2024-02-28T06:55:37.896Z,2.80
2024-02-28T06:58:05.410Z,2.00
2024-02-28T07:00:32.692Z,4.00
2024-02-28T07:03:00.005Z,1.00
2024-02-28T07:05:27.228Z,4.20
2024-02-28T07:07:54.471Z,4.00
2024-02-28T07:10:21.969Z,4.40
2024-02-28T07:12:49.328Z,4.00
2024-02-28T07:15:16.647Z,4.00
2024-02-28T07:17:44.996Z,2.00
2024-02-28T07:20:13.657Z,3.20
2024-02-28T07:22:44.194Z,2.00
2024-02-28T07:25:11.488Z,2.00
2024-02-28T07:27:38.802Z,5.00
2024-02-28T07:30:08.029Z,0.40
2024-02-28T07:32:36.413Z,4.00
2024-02-28T07:35:04.352Z,5.00
2024-02-28T07:37:31.546Z,0.00
2024-02-28T07:39:58.969Z,1.60
2024-02-28T07:42:26.427Z,2.80
2024-02-28T07:44:58.254Z,2.40
2024-02-28T07:47:25.717Z,2.40
2024-02-28T07:49:54.866Z,4.00
2024-02-28T07:52:22.253Z,5.00
2024-02-28T07:54:49.513Z,3.60
2024-02-28T07:57:16.855Z,4.40
2024-02-28T07:59:44.519Z,2.80
2024-02-28T08:02:14.352Z,4.40
2024-02-28T08:04:41.874Z,4.00
2024-02-28T08:07:09.200Z,2.00
2024-02-28T08:09:36.497Z,1.00
2024-02-28T08:12:03.956Z,4.00
2024-02-28T08:14:31.149Z,2.00
2024-02-28T08:16:58.417Z,4.00
2024-02-28T08:19:25.755Z,3.60
2024-02-28T08:21:53.161Z,2.00
2024-02-28T08:24:20.634Z,0.00
2024-02-28T08:26:48.004Z,1.60
2024-02-28T08:29:15.285Z,2.80
2024-02-28T08:31:46.106Z,2.40
2024-02-28T08:34:13.724Z,1.80
2024-02-28T08:36:41.208Z,1.00
2024-02-28T08:39:10.887Z,1.60
2024-02-28T08:41:38.252Z,1.50
2024-02-28T08:44:05.737Z,4.00
2024-02-28T08:46:33.104Z,3.60
2024-02-28T08:49:00.451Z,1.60
2024-02-28T08:51:28.593Z,6.00
2024-02-28T08:53:56.922Z,5.00
2024-02-28T08:56:24.246Z,5.60
2024-02-28T08:58:51.451Z,7.60
2024-02-28T09:01:18.922Z,4.80
2024-02-28T09:03:46.436Z,4.60
2024-02-28T09:06:13.856Z,4.80
2024-02-28T09:08:41.205Z,4.40
2024-02-28T09:11:08.475Z,2.00
2024-02-28T09:13:38.464Z,4.00
2024-02-28T09:16:06.194Z,4.00
2024-02-28T09:18:33.784Z,4.20
2024-02-28T09:21:01.401Z,2.00
2024-02-28T09:23:28.782Z,2.00
2024-02-28T09:25:57.499Z,4.00
2024-02-28T09:28:24.913Z,4.00
2024-02-28T09:30:53.986Z,4.00
2024-02-28T09:33:21.872Z,4.00
2024-02-28T09:35:49.525Z,5.00
2024-02-28T09:38:17.225Z,4.40
2024-02-28T09:40:50.994Z,2.00
2024-02-28T09:43:29.971Z,2.20
2024-02-28T09:46:16.512Z,4.00
2024-02-28T09:48:46.364Z,2.80
2024-02-28T09:51:16.216Z,2.60
2024-02-28T09:53:43.691Z,4.00
2024-02-28T09:56:13.524Z,4.60
2024-02-28T09:58:43.705Z,1.00
2024-02-28T10:01:18.349Z,4.40
2024-02-28T10:03:47.141Z,6.00
2024-02-28T10:06:15.249Z,5.00
2024-02-28T10:08:43.209Z,4.80
2024-02-28T10:11:10.726Z,8.40
2024-02-28T10:13:38.684Z,8.00
2024-02-28T10:16:08.760Z,4.00
2024-02-28T10:18:36.806Z,5.00
2024-02-28T10:21:05.709Z,5.00
2024-02-28T10:23:34.567Z,5.80
2024-02-28T10:26:02.930Z,5.00
2024-02-28T10:28:30.573Z,6.60
2024-02-28T10:30:58.610Z,5.00
2024-02-28T10:33:34.736Z,4.20
2024-02-28T10:36:03.889Z,6.00
2024-02-28T10:38:34.606Z,4.00
2024-02-28T10:41:03.449Z,4.00
2024-02-28T10:43:31.730Z,5.60
2024-02-28T10:46:25.182Z,6.60
2024-02-28T10:48:49.832Z,8.00
2024-02-28T10:51:21.888Z,7.80
2024-02-28T10:53:55.630Z,7.00
2024-02-28T10:56:24.258Z,4.00
2024-02-28T10:58:59.522Z,7.00
2024-02-28T11:01:27.946Z,1.00
2024-02-28T11:03:57.642Z,5.00
2024-02-28T11:06:25.442Z,5.60
2024-02-28T11:08:58.130Z,7.20
2024-02-28T11:11:25.843Z,3.60
2024-02-28T11:13:57.927Z,7.00
2024-02-28T11:16:32.396Z,3.20
2024-02-28T11:19:01.579Z,5.00
2024-02-28T11:21:29.809Z,5.80
2024-02-28T11:24:02.166Z,5.60
2024-02-28T11:26:29.802Z,4.60
2024-02-28T11:28:57.527Z,5.00
2024-02-28T11:31:25.287Z,3.00
2024-02-28T11:33:52.626Z,6.00
2024-02-28T11:36:20.835Z,6.00
2024-02-28T11:38:48.269Z,6.00
2024-02-28T11:41:15.534Z,2.20
2024-02-28T11:43:50.851Z,4.60
2024-02-28T11:46:20.387Z,5.20
2024-02-28T11:48:48.002Z,5.00
2024-02-28T11:51:15.391Z,6.40
2024-02-28T11:53:42.725Z,5.00
2024-02-28T11:56:12.379Z,5.60
2024-02-28T11:58:54.745Z,2.20
2024-02-28T12:01:42.664Z,5.00
2024-02-28T12:04:11.861Z,2.60
2024-02-28T12:06:40.194Z,5.40
2024-02-28T12:09:21.187Z,3.00
2024-02-28T12:11:52.780Z,6.00
2024-02-28T12:14:20.442Z,5.00
2024-02-28T12:16:50.178Z,5.40
2024-02-28T12:19:21.379Z,2.40
2024-02-28T12:21:48.841Z,5.20
2024-02-28T12:24:17.609Z,6.00
2024-02-28T12:26:45.605Z,9.60
2024-02-28T12:29:13.289Z,6.80
2024-02-28T12:31:42.173Z,7.80
2024-02-28T12:34:09.961Z,8.20
2024-02-28T12:36:37.588Z,10.00
2024-02-28T12:39:07.514Z,8.60
2024-02-28T12:41:35.973Z,8.60
2024-02-28T12:44:03.388Z,8.20
2024-02-28T12:46:30.915Z,6.20
2024-02-28T12:48:58.713Z,6.80
2024-02-28T12:51:43.557Z,7.20
2024-02-28T12:54:11.652Z,5.60
2024-02-28T12:56:47.238Z,7.00
2024-02-28T12:59:17.049Z,8.20
2024-02-28T13:01:44.840Z,7.00
2024-02-28T13:04:14.591Z,7.60
2024-02-28T13:06:42.269Z,7.20
2024-02-28T13:09:14.076Z,5.60
2024-02-28T13:11:42.130Z,6.20
2024-02-28T13:14:10.559Z,5.40
2024-02-28T13:16:39.182Z,7.20
2024-02-28T13:19:07.013Z,6.00
2024-02-28T13:21:35.508Z,6.00
2024-02-28T13:24:03.491Z,6.00
2024-02-28T13:26:31.206Z,8.20
2024-02-28T13:28:58.722Z,7.20
2024-02-28T13:31:26.840Z,1.40
2024-02-28T13:33:54.457Z,4.20
2024-02-28T13:36:22.099Z,7.80
2024-02-28T13:38:49.703Z,8.00
2024-02-28T13:41:17.937Z,7.80
2024-02-28T13:43:45.382Z,9.00
2024-02-28T13:46:13.491Z,8.60
2024-02-28T13:48:41.214Z,9.60
2024-02-28T13:51:08.816Z,8.80
2024-02-28T13:53:36.422Z,5.20
2024-02-28T13:56:04.221Z,9.20
2024-02-28T13:58:39.111Z,10.40
2024-02-28T14:01:12.128Z,11.40
2024-02-28T14:03:43.085Z,12.20
2024-02-28T14:06:10.973Z,12.20
2024-02-28T14:08:38.690Z,13.00
2024-02-28T14:11:09.180Z,12.20
2024-02-28T14:13:36.745Z,14.80
2024-02-28T14:16:04.600Z,13.40
2024-02-28T14:18:32.254Z,14.60
2024-02-28T14:20:59.920Z,17.00
2024-02-28T14:23:27.493Z,13.20
2024-02-28T14:25:55.337Z,16.00
2024-02-28T14:28:25.697Z,14.60
2024-02-28T14:30:53.983Z,14.60
2024-02-28T14:33:21.567Z,14.80
2024-02-28T14:35:49.518Z,14.80
2024-02-28T14:38:17.007Z,15.80
2024-02-28T14:40:44.612Z,8.00
2024-02-28T14:43:12.209Z,13.20
2024-02-28T14:45:41.130Z,12.00
2024-02-28T14:48:09.319Z,15.40
2024-02-28T14:50:37.122Z,12.40
2024-02-28T14:53:05.058Z,13.40
2024-02-28T14:55:32.732Z,14.20
2024-02-28T14:58:01.782Z,14.00
2024-02-28T15:00:30.094Z,15.20
2024-02-28T15:03:00.085Z,15.60
2024-02-28T15:05:27.812Z,13.60
2024-02-28T15:07:56.334Z,14.60
2024-02-28T15:10:24.214Z,12.40
2024-02-28T15:12:51.986Z,11.60
2024-02-28T15:15:22.174Z,11.00
2024-02-28T15:17:54.035Z,13.00
2024-02-28T15:20:21.842Z,9.40
2024-02-28T15:22:51.699Z,10.60
2024-02-28T15:25:23.647Z,12.00
2024-02-28T15:27:52.192Z,13.20
2024-02-28T15:30:19.730Z,6.60
2024-02-28T15:32:47.500Z,16.00
2024-02-28T15:35:15.096Z,13.20
2024-02-28T15:37:42.338Z,12.60
2024-02-28T15:40:10.311Z,13.40
2024-02-28T15:42:37.746Z,14.00
2024-02-28T15:45:05.489Z,8.00
2024-02-28T15:47:34.194Z,15.00
2024-02-28T15:50:04.075Z,15.60
2024-02-28T15:52:31.480Z,16.00
2024-02-28T15:54:58.731Z,12.00
2024-02-28T15:57:26.099Z,14.40
2024-02-28T15:59:53.897Z,14.60
2024-02-28T16:02:21.156Z,13.40
2024-02-28T16:04:50.063Z,15.60
2024-02-28T16:07:17.525Z,11.40
2024-02-28T16:09:46.420Z,11.40
2024-02-28T16:12:14.002Z,9.80
2024-02-28T16:14:41.286Z,12.40
2024-02-28T16:17:08.667Z,5.40
2024-02-28T16:19:36.340Z,11.40
2024-02-28T16:22:05.073Z,11.00
2024-02-28T16:24:32.464Z,4.80
2024-02-28T16:26:59.858Z,11.40
2024-02-28T16:29:27.154Z,9.00
2024-02-28T16:31:54.478Z,7.60
2024-02-28T16:34:21.799Z,7.00
2024-02-28T16:36:49.594Z,8.80
2024-02-28T16:39:19.500Z,8.00
2024-02-28T16:41:47.113Z,8.80
2024-02-28T16:44:14.338Z,7.80
2024-02-28T16:46:41.906Z,9.80
2024-02-28T16:49:09.224Z,8.40
2024-02-28T16:51:39.013Z,8.00
2024-02-28T16:54:07.969Z,5.00
2024-02-28T16:56:35.355Z,7.60
2024-02-28T16:59:03.022Z,9.80
2024-02-28T17:01:30.485Z,8.00
2024-02-28T17:03:57.790Z,10.00
2024-02-28T17:06:25.447Z,9.80
2024-02-28T17:08:52.880Z,10.40
2024-02-28T17:11:22.286Z,10.00
2024-02-28T17:13:49.729Z,6.20
2024-02-28T17:16:18.776Z,7.80
2024-02-28T17:18:46.516Z,8.80
2024-02-28T17:21:13.879Z,8.00
2024-02-28T17:23:41.146Z,4.60
2024-02-28T17:26:08.777Z,8.00
2024-02-28T17:28:36.093Z,10.00
2024-02-28T17:31:04.276Z,7.80
2024-02-28T17:33:31.820Z,5.00
2024-02-28T17:35:59.268Z,7.60
2024-02-28T17:38:26.507Z,8.00
2024-02-28T17:40:53.752Z,4.20
2024-02-28T17:43:21.066Z,8.00
2024-02-28T17:45:48.307Z,9.00
2024-02-28T17:48:18.037Z,5.00
2024-02-28T17:50:45.377Z,7.40
2024-02-28T17:53:12.540Z,8.00
2024-02-28T17:55:39.885Z,5.00
2024-02-28T17:58:07.164Z,4.60
2024-02-28T18:00:34.507Z,7.00
2024-02-28T18:03:04.666Z,7.60
2024-02-28T18:05:33.709Z,7.20
2024-02-28T18:08:01.054Z,5.00
2024-02-28T18:10:28.315Z,8.80
2024-02-28T18:12:56.395Z,5.00
2024-02-28T18:15:24.753Z,6.60
2024-02-28T18:17:52.110Z,8.00
2024-02-28T18:20:19.583Z,7.80
2024-02-28T18:22:47.026Z,5.80
2024-02-28T18:25:14.487Z,5.00
2024-02-28T18:27:41.845Z,9.80
2024-02-28T18:30:09.491Z,7.00
2024-02-28T18:32:41.349Z,5.00
2024-02-28T18:35:09.033Z,6.60
2024-02-28T18:37:38.682Z,4.80
2024-02-28T18:40:09.492Z,7.60
2024-02-28T18:42:36.943Z,7.80
2024-02-28T18:45:07.643Z,7.40
2024-02-28T18:47:34.968Z,4.60
2024-02-28T18:50:02.259Z,4.00
2024-02-28T18:52:29.560Z,4.40
2024-02-28T18:54:57.458Z,2.00
2024-02-28T18:57:24.910Z,5.00
2024-02-28T18:59:52.143Z,5.00
2024-02-28T19:02:20.816Z,5.00
2024-02-28T19:04:48.101Z,7.00
2024-02-28T19:07:15.491Z,4.40
2024-02-28T19:09:42.851Z,7.00
2024-02-28T19:12:10.186Z,7.00
2024-02-28T19:14:38.773Z,8.00
2024-02-28T19:17:06.502Z,11.00
2024-02-28T19:19:33.877Z,9.80
2024-02-28T19:22:01.301Z,8.00
2024-02-28T19:24:28.623Z,4.00
2024-02-28T19:26:57.158Z,5.20
2024-02-28T19:29:24.348Z,7.60
2024-02-28T19:31:52.108Z,8.80
2024-02-28T19:34:19.963Z,5.00
2024-02-28T19:36:47.384Z,8.00
2024-02-28T19:39:15.008Z,2.20
2024-02-28T19:41:42.317Z,7.60
2024-02-28T19:44:09.684Z,9.40
2024-02-28T19:46:37.088Z,10.00
2024-02-28T19:49:04.961Z,7.60
2024-02-28T19:51:32.454Z,4.80
2024-02-28T19:53:59.711Z,9.60
2024-02-28T19:56:27.456Z,4.20
2024-02-28T19:58:55.181Z,5.80
2024-02-28T20:01:22.808Z,8.20
2024-02-28T20:03:50.123Z,11.60
2024-02-28T20:06:18.416Z,10.60
2024-02-28T20:08:45.871Z,11.00
2024-02-28T20:11:13.141Z,12.40
2024-02-28T20:13:40.376Z,12.40
2024-02-28T20:16:08.191Z,10.00
2024-02-28T20:18:35.432Z,13.40
2024-02-28T20:21:14.170Z,11.00
2024-02-28T20:23:48.929Z,13.60
2024-02-28T20:26:18.122Z,13.00
2024-02-28T20:28:45.404Z,10.40
2024-02-28T20:31:12.785Z,10.20
2024-02-28T20:33:40.241Z,7.00
2024-02-28T20:36:07.626Z,4.00
2024-02-28T20:38:36.069Z,3.40
2024-02-28T20:41:03.301Z,3.00
2024-02-28T20:43:30.638Z,3.00
2024-02-28T20:45:58.013Z,3.00
2024-02-28T20:48:25.532Z,1.60
2024-02-28T20:50:52.729Z,1.60
2024-02-28T20:53:22.068Z,1.00
2024-02-28T20:55:50.182Z,3.00
2024-02-28T20:58:17.606Z,2.00
2024-02-28T21:00:44.932Z,1.00
2024-02-28T21:03:12.561Z,3.00
2024-02-28T21:05:39.814Z,1.00
2024-02-28T21:08:07.699Z,1.00
2024-02-28T21:10:35.590Z,1.40
2024-02-28T21:13:02.968Z,1.00
2024-02-28T21:15:30.318Z,1.00
2024-02-28T21:17:57.727Z,1.00
2024-02-28T21:20:26.013Z,1.00
2024-02-28T21:22:53.433Z,0.40
2024-02-28T21:25:20.652Z,1.00
2024-02-28T21:27:48.374Z,1.00
2024-02-28T21:30:15.749Z,1.00
2024-02-28T21:32:43.465Z,1.00
2024-02-28T21:35:13.310Z,0.80
2024-02-28T21:37:41.384Z,1.00
2024-02-28T21:40:09.306Z,0.00
2024-02-28T21:42:36.915Z,0.00
2024-02-28T21:45:04.887Z,0.80
2024-02-28T21:47:33.791Z,0.00
2024-02-28T21:50:01.203Z,0.80
2024-02-28T21:52:28.787Z,1.00
2024-02-28T21:54:56.293Z,0.00
2024-02-28T21:57:23.782Z,0.00
2024-02-28T21:59:53.152Z,0.00
2024-02-28T22:02:20.910Z,1.00
2024-02-28T22:04:48.216Z,0.00
2024-02-28T22:07:15.932Z,0.20
2024-02-28T22:09:43.520Z,0.00
2024-02-28T22:12:11.153Z,1.00
2024-02-28T22:14:38.613Z,0.60
2024-02-28T22:17:06.781Z,0.00
2024-02-28T22:19:34.374Z,0.00
2024-02-28T22:22:02.090Z,0.00
2024-02-28T22:24:30.108Z,0.60
2024-02-28T22:26:57.782Z,0.00
2024-02-28T22:29:25.652Z,0.20
2024-02-28T22:31:53.257Z,1.00
2024-02-28T22:34:20.672Z,0.00
2024-02-28T22:36:48.290Z,0.20
2024-02-28T22:39:15.942Z,1.00
2024-02-28T22:41:43.404Z,0.00
2024-02-28T22:44:11.021Z,1.00
2024-02-28T22:46:38.805Z,0.00
2024-02-28T22:49:06.805Z,0.80
2024-02-28T22:51:35.588Z,0.00
2024-02-28T22:54:03.334Z,0.60
2024-02-28T22:56:31.006Z,2.20
2024-02-28T22:58:58.565Z,0.00
2024-02-28T23:01:26.307Z,0.40
2024-02-28T23:03:53.904Z,0.00
2024-02-28T23:06:21.576Z,0.60
2024-02-28T23:08:49.030Z,0.00
2024-02-28T23:11:17.226Z,0.00
2024-02-28T23:13:45.202Z,1.00
2024-02-28T23:16:13.051Z,0.00
2024-02-28T23:18:41.297Z,0.00
2024-02-28T23:21:09.207Z,0.00
2024-02-28T23:23:37.284Z,0.00
2024-02-28T23:26:05.179Z,0.00
2024-02-28T23:28:32.984Z,0.00
2024-02-28T23:31:00.381Z,0.80
2024-02-28T23:33:28.291Z,1.00
2024-02-28T23:35:55.859Z,0.00
2024-02-28T23:38:23.559Z,0.00
2024-02-28T23:40:51.213Z,0.00
2024-02-28T23:43:18.904Z,0.00
2024-02-28T23:45:46.629Z,0.80
2024-02-28T23:48:14.187Z,0.00
2024-02-28T23:50:53.908Z,0.00
2024-02-28T23:53:21.689Z,0.00
2024-02-28T23:55:49.336Z,0.60
2024-02-28T23:58:17.095Z,1.00
